createdAt,value
2017-12-21T00:02:25.513Z,21.90
2017-12-21T00:04:52.949Z,23.23
2017-12-21T00:07:21.160Z,21.67
2017-12-21T00:09:48.580Z,20.73
2017-12-21T00:12:16.770Z,20.67
2017-12-21T00:14:44.201Z,22.07
2017-12-21T00:17:12.406Z,21.60
2017-12-21T00:19:39.892Z,22.30
2017-12-21T00:22:07.321Z,22.00
2017-12-21T00:24:34.752Z,23.50
2017-12-21T00:27:03.355Z,24.17
2017-12-21T00:29:31.528Z,24.53
2017-12-21T00:31:58.962Z,24.60
2017-12-21T00:34:27.425Z,22.93
2017-12-21T00:36:54.846Z,24.97
2017-12-21T00:39:22.796Z,25.87
2017-12-21T00:41:50.934Z,24.87
2017-12-21T00:44:18.361Z,25.37
2017-12-21T00:46:46.381Z,23.47
2017-12-21T00:49:14.584Z,24.60
2017-12-21T00:51:42.778Z,24.73
2017-12-21T00:54:10.201Z,23.73
2017-12-21T00:56:37.641Z,23.87
2017-12-21T00:59:05.844Z,23.10
2017-12-21T01:01:33.299Z,27.20
2017-12-21T01:04:00.737Z,25.87
2017-12-21T01:06:28.171Z,26.07
2017-12-21T01:08:55.596Z,26.67
2017-12-21T01:11:23.051Z,21.90
2017-12-21T01:13:50.482Z,27.17
2017-12-21T01:16:17.933Z,23.90
2017-12-21T01:18:45.408Z,26.17
2017-12-21T01:21:12.844Z,26.00
2017-12-21T01:23:40.269Z,24.07
2017-12-21T01:26:08.987Z,26.73
2017-12-21T01:28:36.430Z,26.27
2017-12-21T01:31:04.621Z,23.93
2017-12-21T01:33:32.300Z,23.50
2017-12-21T01:35:59.699Z,24.83
2017-12-21T01:38:27.131Z,26.60
2017-12-21T01:40:54.561Z,27.87
2017-12-21T01:43:22.004Z,27.07
2017-12-21T01:45:49.440Z,27.60
2017-12-21T01:48:16.870Z,29.67
2017-12-21T01:50:44.300Z,28.53
2017-12-21T01:53:11.729Z,28.23
2017-12-21T01:55:39.151Z,27.77
2017-12-21T01:58:06.587Z,30.10
2017-12-21T02:00:34.776Z,30.23
2017-12-21T02:03:03.035Z,30.60
2017-12-21T02:08:29.593Z,25.30
2017-12-21T02:10:57.025Z,27.73
2017-12-21T02:13:24.992Z,25.80
2017-12-21T02:15:52.416Z,24.93
2017-12-21T02:18:20.601Z,26.23
2017-12-21T02:20:48.038Z,26.10
2017-12-21T02:23:16.263Z,27.07
2017-12-21T02:25:43.990Z,24.90
2017-12-21T02:28:11.406Z,28.73
2017-12-21T02:30:38.824Z,26.10
2017-12-21T02:33:06.262Z,26.17
2017-12-21T02:35:34.457Z,23.27
2017-12-21T02:38:01.883Z,25.70
2017-12-21T02:40:29.308Z,26.00
2017-12-21T02:42:57.028Z,27.77
2017-12-21T02:45:24.470Z,26.97
2017-12-21T02:47:52.647Z,25.63
2017-12-21T02:50:20.089Z,27.00
2017-12-21T02:52:47.520Z,26.17
2017-12-21T02:55:14.969Z,28.83
2017-12-21T02:57:42.422Z,28.23
2017-12-21T03:00:09.908Z,29.20
2017-12-21T03:02:37.433Z,28.60
2017-12-21T03:05:04.920Z,26.63
2017-12-21T03:07:32.352Z,28.53
2017-12-21T03:09:59.788Z,28.53
2017-12-21T03:12:27.220Z,26.23
2017-12-21T03:14:55.581Z,28.07
2017-12-21T03:17:23.059Z,25.73
2017-12-21T03:19:50.445Z,26.80
2017-12-21T03:22:17.872Z,25.90
2017-12-21T03:24:45.308Z,27.20
2017-12-21T03:27:13.496Z,25.43
2017-12-21T03:29:40.945Z,26.17
2017-12-21T03:32:09.132Z,25.93
2017-12-21T03:34:36.552Z,24.60
2017-12-21T03:37:04.008Z,26.17
2017-12-21T03:39:31.438Z,24.17
2017-12-21T03:41:58.890Z,25.60
2017-12-21T03:47:24.261Z,26.50
2017-12-21T03:49:51.688Z,26.87
2017-12-21T03:52:19.141Z,25.77
2017-12-21T03:54:46.580Z,25.67
2017-12-21T03:57:14.012Z,25.63
2017-12-21T03:59:41.452Z,24.47
2017-12-21T04:02:09.656Z,24.93
2017-12-21T04:04:37.506Z,23.37
2017-12-21T04:07:06.304Z,24.80
2017-12-21T04:09:33.741Z,25.17
2017-12-21T04:12:02.228Z,26.70
2017-12-21T04:14:29.628Z,24.40
2017-12-21T04:16:57.065Z,24.80
2017-12-21T04:19:24.929Z,24.67
2017-12-21T04:21:52.873Z,25.17
2017-12-21T04:24:21.080Z,24.50
2017-12-21T04:26:48.510Z,24.70
2017-12-21T04:29:16.712Z,24.77
2017-12-21T04:31:50.724Z,26.27
2017-12-21T04:34:18.164Z,25.00
2017-12-21T04:36:46.140Z,25.67
2017-12-21T04:39:13.973Z,25.30
2017-12-21T04:42:00.832Z,24.87
2017-12-21T04:44:28.293Z,25.00
2017-12-21T04:46:55.731Z,25.00
2017-12-21T04:49:23.156Z,23.80
2017-12-21T04:51:50.588Z,24.50
2017-12-21T04:54:20.615Z,24.80
2017-12-21T04:56:48.044Z,26.17
2017-12-21T04:59:15.481Z,24.00
2017-12-21T05:01:42.911Z,24.87
2017-12-21T05:04:11.117Z,24.33
2017-12-21T05:06:38.540Z,25.30
2017-12-21T05:09:07.137Z,24.07
2017-12-21T05:11:35.313Z,23.57
2017-12-21T05:14:02.757Z,23.40
2017-12-21T05:16:30.949Z,24.27
2017-12-21T05:18:58.913Z,23.67
2017-12-21T05:21:26.744Z,23.77
2017-12-21T05:23:54.665Z,23.93
2017-12-21T05:26:22.877Z,25.00
2017-12-21T05:28:52.260Z,24.73
2017-12-21T05:31:19.659Z,24.27
2017-12-21T05:33:48.400Z,23.83
2017-12-21T05:36:15.829Z,23.17
2017-12-21T05:38:43.261Z,24.37
2017-12-21T05:41:11.864Z,25.43
2017-12-21T05:43:39.315Z,25.90
2017-12-21T05:46:06.739Z,27.73
2017-12-21T05:48:34.168Z,26.17
2017-12-21T05:51:01.595Z,26.33
2017-12-21T05:53:29.050Z,28.97
2017-12-21T05:55:59.327Z,27.57
2017-12-21T05:58:26.762Z,29.00
2017-12-21T06:00:54.220Z,28.23
2017-12-21T06:03:28.240Z,27.60
2017-12-21T06:05:56.112Z,26.47
2017-12-21T06:08:23.548Z,28.73
2017-12-21T06:10:51.401Z,28.07
2017-12-21T06:13:19.201Z,29.07
2017-12-21T06:15:46.631Z,26.40
2017-12-21T06:18:14.056Z,28.13
2017-12-21T06:20:42.272Z,28.30
2017-12-21T06:23:09.703Z,26.30
2017-12-21T06:25:37.135Z,28.20
2017-12-21T06:28:05.865Z,26.53
2017-12-21T06:30:34.758Z,28.53
2017-12-21T06:33:02.882Z,26.57
2017-12-21T06:35:31.093Z,26.00
2017-12-21T06:37:58.515Z,27.13
2017-12-21T06:40:26.724Z,26.77
2017-12-21T06:42:54.665Z,27.47
2017-12-21T06:45:22.871Z,28.27
2017-12-21T06:47:50.296Z,28.50
2017-12-21T06:50:32.621Z,29.30
2017-12-21T06:53:00.074Z,29.77
2017-12-21T06:55:27.512Z,28.20
2017-12-21T06:57:56.840Z,28.93
2017-12-21T07:00:24.288Z,28.77
2017-12-21T07:02:52.637Z,28.53
2017-12-21T07:05:20.072Z,29.13
2017-12-21T07:07:47.521Z,28.87
2017-12-21T07:10:14.960Z,28.87
2017-12-21T07:12:42.417Z,28.17
2017-12-21T07:15:09.839Z,27.87
2017-12-21T07:17:42.285Z,27.70
2017-12-21T07:20:09.712Z,29.27
2017-12-21T07:22:37.157Z,27.57
2017-12-21T07:25:05.253Z,28.23
2017-12-21T07:27:32.776Z,29.47
2017-12-21T07:30:00.216Z,27.60
2017-12-21T07:32:28.428Z,29.13
2017-12-21T07:34:56.869Z,28.70
2017-12-21T07:37:25.888Z,29.20
2017-12-21T07:39:53.768Z,28.63
2017-12-21T07:42:23.109Z,28.23
2017-12-21T07:44:50.541Z,28.43
2017-12-21T07:47:17.975Z,27.57
2017-12-21T07:49:45.413Z,27.40
2017-12-21T07:52:12.848Z,25.77
2017-12-21T07:54:41.821Z,27.23
2017-12-21T07:57:10.087Z,26.13
2017-12-21T07:59:37.524Z,24.80
2017-12-21T08:02:04.952Z,25.27
2017-12-21T08:04:32.376Z,24.80
2017-12-21T08:06:59.816Z,23.40
2017-12-21T08:09:27.242Z,24.43
2017-12-21T08:11:54.661Z,24.87
2017-12-21T08:14:23.774Z,24.57
2017-12-21T08:16:52.105Z,23.03
2017-12-21T08:19:19.533Z,21.50
2017-12-21T08:21:46.965Z,23.43
2017-12-21T08:24:14.397Z,22.10
2017-12-21T08:26:42.596Z,21.83
2017-12-21T08:29:10.796Z,22.13
2017-12-21T08:31:38.232Z,23.27
2017-12-21T08:34:05.661Z,22.20
2017-12-21T08:36:33.088Z,23.40
2017-12-21T08:39:00.545Z,22.70
2017-12-21T08:41:28.358Z,22.23
2017-12-21T08:43:56.561Z,22.60
2017-12-21T08:46:24.756Z,22.70
2017-12-21T08:48:52.640Z,21.97
2017-12-21T08:51:20.073Z,21.77
2017-12-21T08:53:47.507Z,21.37
2017-12-21T08:56:14.929Z,21.17
2017-12-21T08:58:42.368Z,21.97
2017-12-21T09:01:11.781Z,21.37
2017-12-21T09:03:39.220Z,20.43
2017-12-21T09:06:06.661Z,19.43
2017-12-21T09:08:34.105Z,20.73
2017-12-21T09:11:01.536Z,19.63
2017-12-21T09:13:31.039Z,18.50
2017-12-21T09:16:02.008Z,18.07
2017-12-21T09:18:29.444Z,20.03
2017-12-21T09:20:56.885Z,19.17
2017-12-21T09:23:25.090Z,18.23
2017-12-21T09:25:53.196Z,18.80
2017-12-21T09:28:20.628Z,18.93
2017-12-21T09:30:48.443Z,17.40
2017-12-21T09:33:15.990Z,18.33
2017-12-21T09:35:43.415Z,17.47
2017-12-21T09:38:10.849Z,17.63
2017-12-21T09:40:38.283Z,16.93
2017-12-21T09:43:06.477Z,16.63
2017-12-21T09:45:34.313Z,15.57
2017-12-21T09:48:01.732Z,15.43
2017-12-21T09:50:29.700Z,14.20
2017-12-21T09:52:57.134Z,13.87
2017-12-21T09:55:25.736Z,13.80
2017-12-21T09:57:53.177Z,13.50
2017-12-21T10:00:20.611Z,12.90
2017-12-21T10:02:48.043Z,12.43
2017-12-21T10:05:15.483Z,11.60
2017-12-21T10:07:43.124Z,13.57
2017-12-21T10:10:10.568Z,12.43
2017-12-21T10:12:38.239Z,12.37
2017-12-21T10:15:05.688Z,11.90
2017-12-21T10:17:33.136Z,11.17
2017-12-21T10:20:01.114Z,11.30
2017-12-21T10:25:03.801Z,11.23
2017-12-21T10:27:31.253Z,12.00
2017-12-21T10:29:58.720Z,12.30
2017-12-21T10:32:26.144Z,12.40
2017-12-21T10:34:55.025Z,11.83
2017-12-21T10:37:22.459Z,13.00
2017-12-21T10:39:50.439Z,11.93
2017-12-21T10:42:18.776Z,12.53
2017-12-21T10:44:46.208Z,11.80
2017-12-21T10:47:14.328Z,12.33
2017-12-21T10:49:42.045Z,12.27
2017-12-21T10:52:09.524Z,12.43
2017-12-21T10:54:38.815Z,12.23
2017-12-21T10:57:13.927Z,11.97
2017-12-21T10:59:42.336Z,12.43
2017-12-21T11:02:13.339Z,12.47
2017-12-21T11:04:41.517Z,11.83
2017-12-21T11:07:09.726Z,12.73
2017-12-21T11:09:37.708Z,12.33
2017-12-21T11:12:06.203Z,12.10
2017-12-21T11:14:33.633Z,13.13
2017-12-21T11:17:01.061Z,13.33
2017-12-21T11:19:29.778Z,12.90
2017-12-21T11:21:57.204Z,11.63
2017-12-21T11:24:25.804Z,12.63
2017-12-21T11:26:53.233Z,12.53
2017-12-21T11:29:20.977Z,12.63
2017-12-21T11:31:48.960Z,12.10
2017-12-21T11:34:16.392Z,12.43
2017-12-21T11:36:44.421Z,13.10
2017-12-21T11:39:12.293Z,13.80
2017-12-21T11:41:40.124Z,13.07
2017-12-21T11:44:10.132Z,11.03
2017-12-21T11:46:37.556Z,12.43
2017-12-21T11:49:04.988Z,12.70
2017-12-21T11:51:32.408Z,13.20
2017-12-21T11:54:01.135Z,12.27
2017-12-21T11:56:28.564Z,11.40
2017-12-21T11:58:56.752Z,12.00
2017-12-21T12:01:25.810Z,11.07
2017-12-21T12:03:53.321Z,11.07
2017-12-21T12:06:21.139Z,11.27
2017-12-21T12:08:48.828Z,11.27
2017-12-21T12:11:17.040Z,11.27
2017-12-21T12:13:44.949Z,11.53
2017-12-21T12:16:12.545Z,12.17
2017-12-21T12:18:42.552Z,11.23
2017-12-21T12:21:09.996Z,11.57
2017-12-21T12:23:38.200Z,12.47
2017-12-21T12:26:05.635Z,11.73
2017-12-21T12:28:34.508Z,10.80
2017-12-21T12:31:02.728Z,11.43
2017-12-21T12:33:30.163Z,11.63
2017-12-21T12:36:00.053Z,11.23
2017-12-21T12:38:27.491Z,11.20
2017-12-21T12:40:54.933Z,10.33
2017-12-21T12:43:26.428Z,11.10
2017-12-21T12:45:53.848Z,10.67
2017-12-21T12:48:21.488Z,10.73
2017-12-21T12:50:48.923Z,11.90
2017-12-21T12:53:16.922Z,12.90
2017-12-21T12:55:44.348Z,11.17
2017-12-21T12:58:12.373Z,11.50
2017-12-21T13:00:39.804Z,10.93
2017-12-21T13:03:08.220Z,11.03
2017-12-21T13:05:35.662Z,12.17
2017-12-21T13:08:04.324Z,10.63
2017-12-21T13:10:31.799Z,11.63
2017-12-21T13:12:59.208Z,12.77
2017-12-21T13:15:26.637Z,12.10
2017-12-21T13:17:54.076Z,11.50
2017-12-21T13:20:21.505Z,12.30
2017-12-21T13:22:48.928Z,11.67
2017-12-21T13:25:19.800Z,11.63
2017-12-21T13:27:47.256Z,12.30
2017-12-21T13:30:15.404Z,12.33
2017-12-21T13:32:42.824Z,13.70
2017-12-21T13:35:10.259Z,14.33
2017-12-21T13:37:38.116Z,14.57
2017-12-21T13:40:05.968Z,15.00
2017-12-21T13:42:33.404Z,15.27
2017-12-21T13:45:03.256Z,16.50
2017-12-21T13:47:30.700Z,16.67
2017-12-21T13:49:58.153Z,17.27
2017-12-21T13:52:25.654Z,17.20
2017-12-21T13:54:56.012Z,18.47
2017-12-21T13:57:23.620Z,17.50
2017-12-21T13:59:51.343Z,17.67
2017-12-21T14:02:19.553Z,18.83
2017-12-21T14:04:47.196Z,20.00
2017-12-21T14:07:17.877Z,20.20
2017-12-21T14:09:48.729Z,19.70
2017-12-21T14:12:16.934Z,19.93
2017-12-21T14:14:44.365Z,18.73
2017-12-21T14:17:12.663Z,19.20
2017-12-21T14:19:40.132Z,18.40
2017-12-21T14:22:07.597Z,19.17
2017-12-21T14:24:35.850Z,18.50
2017-12-21T14:27:03.281Z,18.00
2017-12-21T14:29:31.474Z,19.37
2017-12-21T14:31:58.905Z,18.97
2017-12-21T14:34:26.736Z,17.90
2017-12-21T14:36:54.157Z,18.50
2017-12-21T14:39:21.993Z,17.43
2017-12-21T14:41:49.612Z,19.30
2017-12-21T14:44:17.068Z,17.63
2017-12-21T14:46:44.495Z,19.73
2017-12-21T14:49:12.373Z,22.33
2017-12-21T14:51:39.804Z,22.10
2017-12-21T14:54:08.000Z,21.37
2017-12-21T14:56:35.452Z,21.33
2017-12-21T14:59:02.898Z,20.30
2017-12-21T15:01:31.091Z,20.13
2017-12-21T15:03:58.735Z,19.17
2017-12-21T15:06:26.929Z,20.53
2017-12-21T15:08:54.365Z,19.87
2017-12-21T15:11:22.616Z,20.43
2017-12-21T15:13:50.044Z,19.47
2017-12-21T15:16:17.460Z,18.00
2017-12-21T15:18:47.330Z,18.50
2017-12-21T15:21:14.765Z,18.20
2017-12-21T15:23:42.209Z,17.50
2017-12-21T15:26:09.628Z,18.33
2017-12-21T15:28:38.105Z,17.67
2017-12-21T15:31:05.508Z,19.57
2017-12-21T15:33:32.940Z,19.23
2017-12-21T15:36:00.361Z,19.80
2017-12-21T15:38:27.780Z,20.27
2017-12-21T15:40:55.213Z,17.73
2017-12-21T15:43:23.059Z,18.73
2017-12-21T15:45:51.257Z,20.00
2017-12-21T15:48:19.228Z,17.57
2017-12-21T15:50:46.677Z,18.53
2017-12-21T15:53:14.104Z,18.40
2017-12-21T15:55:42.128Z,20.17
2017-12-21T15:58:09.956Z,18.43
2017-12-21T16:00:38.169Z,19.27
2017-12-21T16:03:06.168Z,19.73
2017-12-21T16:05:33.605Z,18.53
2017-12-21T16:08:01.294Z,19.73
2017-12-21T16:10:28.738Z,18.83
2017-12-21T16:12:56.976Z,18.77
2017-12-21T16:15:24.607Z,18.10
2017-12-21T16:17:52.145Z,18.83
2017-12-21T16:20:19.588Z,17.70
2017-12-21T16:22:47.016Z,17.53
2017-12-21T16:25:14.852Z,17.03
2017-12-21T16:27:43.484Z,17.83
2017-12-21T16:30:11.369Z,18.17
2017-12-21T16:32:38.795Z,17.40
2017-12-21T16:35:06.224Z,17.90
2017-12-21T16:37:34.416Z,19.17
2017-12-21T16:40:01.872Z,19.17
2017-12-21T16:42:30.063Z,19.20
2017-12-21T16:44:58.437Z,20.23
2017-12-21T16:47:28.711Z,23.27
2017-12-21T16:49:56.404Z,21.80
2017-12-21T16:52:25.012Z,22.53
2017-12-21T16:54:52.428Z,21.27
2017-12-21T16:57:20.832Z,23.10
2017-12-21T16:59:48.262Z,23.73
2017-12-21T17:02:16.460Z,23.47
2017-12-21T17:04:43.881Z,23.13
2017-12-21T17:07:11.316Z,23.77
2017-12-21T17:09:38.811Z,24.50
2017-12-21T17:12:07.025Z,24.57
2017-12-21T17:14:34.448Z,23.47
2017-12-21T17:17:01.907Z,25.47
2017-12-21T17:19:29.719Z,25.77
2017-12-21T17:21:57.140Z,25.70
2017-12-21T17:24:24.598Z,25.00
2017-12-21T17:26:52.043Z,25.40
2017-12-21T17:29:19.416Z,26.63
2017-12-21T17:31:46.836Z,26.80
2017-12-21T17:34:15.024Z,27.30
2017-12-21T17:36:43.236Z,26.70
2017-12-21T17:39:11.068Z,25.80
2017-12-21T17:41:38.474Z,26.23
2017-12-21T17:44:05.896Z,28.33
2017-12-21T17:46:33.316Z,25.40
2017-12-21T17:49:00.747Z,26.80
2017-12-21T17:51:28.168Z,26.87
2017-12-21T17:53:55.592Z,27.67
2017-12-21T17:56:23.776Z,25.93
2017-12-21T17:58:51.973Z,26.93
2017-12-21T18:01:19.392Z,25.70
2017-12-21T18:03:47.669Z,28.50
2017-12-21T18:06:17.657Z,29.37
2017-12-21T18:08:45.084Z,25.60
2017-12-21T18:11:13.045Z,27.23
2017-12-21T18:13:40.468Z,27.37
2017-12-21T18:16:07.888Z,28.20
2017-12-21T18:18:35.327Z,27.57
2017-12-21T18:21:02.744Z,28.17
2017-12-21T18:23:30.945Z,29.13
2017-12-21T18:25:58.371Z,29.37
2017-12-21T18:28:25.796Z,29.40
2017-12-21T18:30:53.215Z,29.40
2017-12-21T18:33:20.657Z,29.13
2017-12-21T18:35:48.839Z,30.70
2017-12-21T18:38:16.988Z,30.07
2017-12-21T18:40:47.636Z,30.53
2017-12-21T18:43:16.276Z,29.27
2017-12-21T18:45:43.964Z,29.57
2017-12-21T18:48:11.968Z,30.37
2017-12-21T18:50:39.956Z,30.23
2017-12-21T18:53:07.376Z,29.70
2017-12-21T18:55:35.993Z,32.30
2017-12-21T18:58:03.412Z,29.83
2017-12-21T19:00:32.309Z,30.30
2017-12-21T19:03:01.320Z,28.97
2017-12-21T19:05:28.755Z,30.53
2017-12-21T19:07:56.944Z,29.67
2017-12-21T19:10:24.923Z,29.10
2017-12-21T19:12:52.340Z,29.60
2017-12-21T19:15:19.781Z,32.00
2017-12-21T19:17:47.852Z,30.23
2017-12-21T19:20:15.285Z,29.80
2017-12-21T19:22:43.691Z,30.07
2017-12-21T19:25:11.809Z,30.50
2017-12-21T19:27:39.757Z,31.10
2017-12-21T19:30:07.952Z,30.33
2017-12-21T19:32:35.372Z,29.77
2017-12-21T19:35:02.796Z,28.70
2017-12-21T19:37:30.664Z,30.10
2017-12-21T19:39:58.643Z,30.97
2017-12-21T19:42:26.328Z,29.13
2017-12-21T19:44:53.723Z,28.67
2017-12-21T19:47:21.162Z,28.97
2017-12-21T19:49:49.347Z,29.60
2017-12-21T19:52:16.772Z,28.70
2017-12-21T19:54:44.196Z,28.30
2017-12-21T19:57:11.627Z,29.03
2017-12-21T19:59:39.053Z,28.57
2017-12-21T20:02:06.547Z,28.30
2017-12-21T20:04:34.245Z,29.00
2017-12-21T20:07:01.653Z,28.97
2017-12-21T20:09:29.080Z,29.53
2017-12-21T20:11:56.508Z,28.50
2017-12-21T20:14:23.932Z,28.27
2017-12-21T20:16:51.362Z,29.63
2017-12-21T20:19:19.964Z,27.57
2017-12-21T20:21:47.396Z,27.10
2017-12-21T20:24:15.373Z,27.33
2017-12-21T20:26:42.811Z,27.47
2017-12-21T20:29:10.223Z,27.60
2017-12-21T20:31:38.420Z,27.77
2017-12-21T20:34:05.849Z,27.10
2017-12-21T20:36:36.461Z,27.87
2017-12-21T20:39:03.884Z,26.83
2017-12-21T20:41:31.537Z,27.53
2017-12-21T20:43:58.964Z,28.30
2017-12-21T20:46:26.384Z,27.60
2017-12-21T20:48:54.592Z,28.20
2017-12-21T20:51:22.316Z,26.30
2017-12-21T20:53:49.721Z,26.50
2017-12-21T20:56:17.151Z,27.43
2017-12-21T20:58:44.924Z,28.40
2017-12-21T21:01:13.090Z,28.43
2017-12-21T21:03:41.198Z,28.43
2017-12-21T21:06:08.611Z,28.33
2017-12-21T21:08:36.049Z,27.97
2017-12-21T21:11:04.796Z,27.97
2017-12-21T21:13:32.224Z,25.80
2017-12-21T21:16:00.412Z,25.97
2017-12-21T21:18:27.840Z,25.87
2017-12-21T21:20:55.264Z,26.47
2017-12-21T21:23:22.732Z,26.13
2017-12-21T21:25:50.652Z,26.47
2017-12-21T21:28:18.087Z,26.73
2017-12-21T21:30:45.507Z,26.20
2017-12-21T21:33:12.941Z,25.47
2017-12-21T21:35:40.373Z,25.37
2017-12-21T21:38:08.219Z,26.67
2017-12-21T21:40:35.639Z,27.67
2017-12-21T21:43:03.081Z,26.97
2017-12-21T21:45:32.941Z,25.23
2017-12-21T21:48:01.126Z,26.80
2017-12-21T21:50:28.574Z,26.07
2017-12-21T21:52:55.984Z,26.60
2017-12-21T21:55:23.733Z,28.23
2017-12-21T21:57:51.159Z,26.57
2017-12-21T22:00:18.597Z,27.43
2017-12-21T22:02:47.301Z,27.13
2017-12-21T22:05:14.735Z,27.10
2017-12-21T22:07:42.933Z,27.17
2017-12-21T22:10:10.369Z,27.27
2017-12-21T22:12:37.792Z,26.10
2017-12-21T22:15:05.605Z,26.63
2017-12-21T22:17:33.793Z,26.47
2017-12-21T22:20:01.733Z,27.13
2017-12-21T22:22:29.302Z,26.10
2017-12-21T22:24:58.730Z,27.73
2017-12-21T22:27:26.152Z,26.30
2017-12-21T22:29:53.576Z,26.27
2017-12-21T22:32:21.412Z,25.87
2017-12-21T22:34:48.852Z,25.47
2017-12-21T22:37:16.283Z,26.40
2017-12-21T22:39:44.909Z,27.67
2017-12-21T22:42:12.331Z,26.97
2017-12-21T22:44:40.850Z,26.40
2017-12-21T22:47:08.296Z,27.70
2017-12-21T22:49:35.716Z,26.87
2017-12-21T22:52:04.317Z,28.67
2017-12-21T22:54:31.715Z,27.90
2017-12-21T22:56:59.143Z,24.90
2017-12-21T22:59:26.567Z,25.97
2017-12-21T23:01:54.774Z,25.67
2017-12-21T23:04:22.504Z,25.07
2017-12-21T23:06:50.493Z,24.67
2017-12-21T23:09:18.689Z,25.87
2017-12-21T23:11:46.516Z,25.27
2017-12-21T23:14:13.949Z,23.87
2017-12-21T23:16:41.429Z,25.30
2017-12-21T23:19:09.357Z,24.30
2017-12-21T23:21:36.784Z,26.80
2017-12-21T23:24:04.407Z,26.90
2017-12-21T23:26:31.859Z,25.23
2017-12-21T23:28:59.700Z,24.10
2017-12-21T23:31:27.392Z,26.87
2017-12-21T23:33:55.296Z,26.50
2017-12-21T23:36:23.262Z,28.00
2017-12-21T23:38:51.887Z,27.93
2017-12-21T23:41:19.327Z,29.97
2017-12-21T23:46:54.253Z,25.00
2017-12-21T23:49:22.463Z,27.67
2017-12-21T23:51:49.894Z,27.23
2017-12-21T23:54:17.320Z,28.90
2017-12-21T23:56:44.752Z,27.10
2017-12-21T23:59:12.185Z,28.93
